Conner, MT

5:09 AM MST on December 18, 2014 (GMT -0700)
Lemhi County | Change Station
CLOSE
Current Station
Airport
Location: Salmon,
Elevation: 4045 ft
Nearby Weather Stations

Elev 4045 ft 45.12 °N, 113.88 °W | Updated 14 minutes ago

Overcast
Overcast
19 °F
Feels Like 19 °F
N
0
Wind Variable Wind from North

Today
High -- | Low -- °F
--% Chance of Precip.
Yesterday
High -- | Low -- °F
Precip. -- in
8:14 AM 4:54 PM
Waning Crescent, 15% visible
Pressure 30.09 in
Visibility 10.0 miles
Clouds Few 7000 ft
Overcast 12000 ft
Dew Point 14 °F
Humidity 80%
Rainfall 0.00 in
Snow Depth Not available.
UV 0 out of 12
Pollen .10 out of 12
Air Quality Not available.
Flu Activity Not available.
METAR KSMN 181155Z AUTO 00000KT 10SM FEW070 OVC120 M07/M10 A3009 RMK AO1 70005 11060 21090 52007

More Conditions Fewer Conditions

Pressure 30.09 in
Visibility 10.0 miles
Clouds Few 7000 ft
Overcast 12000 ft
Dew Point 14 °F
Humidity 80%
Rainfall 0.00 in
Snow Depth Not available.
UV 0 out of 12
Pollen .10 out of 12
Air Quality Not available.
Flu Activity Not available.
METAR KSMN 181155Z AUTO 00000KT 10SM FEW070 OVC120 M07/M10 A3009 RMK AO1 70005 11060 21090 52007

More Conditions Fewer Conditions

10-Day Weather Forecast

Almanac

Astronomy

Dec. 18, 2014 Rise Set
Actual Time
Civil Twilight
Nautical Twilight
Astronomical Twilight
Moon
Length of Visible Light
Length of Day
Tomorrow will be .
, % of the Moon is Illuminated

Today's Extremes

State Highs State Lows

Community

WunderPhotos

Upload Photos

1,778,923 photos uploaded!

WunderBlogs® & News

Nearby

Air Quality

  Air Quality AQ Index Pollutant
Not available.

Snow Depth

Station Depth Elevation

Earthquake Activity

City Distance Mag. Time & Date
Minimum magnitude displayed is 2.5.

Coastal Water Temperatures

Place Temperature

Nearby Weather Stations